USSS

Koltsovo Airport

Yekaterinburg, Russian Federation
TAF USSS 171400Z 1715/1815 34005G14MPS 9999 -SHRA BKN020CB BECMG 1720/1722 34003G08MPS BECMG 1802/1804 35004G13MPS BECMG 1812/1814 35003G08MPS
Issued Valid From Valid To
Aug-17 @ 14:00 UTC
(56 minutes ago)
Aug-17 @ 15:00 UTC
(in 4 minutes)
Aug-18 @ 15:00 UTC
(in 24 hours)
Aug-17 @ 15:00 to Aug-17 @ 20:00
TAF USSS 171400Z 1715/1815 34005G14MPS 9999 -SHRA BKN020CB
Wind Visibility Clouds Conditions
340° at 10 knots
 Gusting to 27 knots
10,000+ meters
  • Broken at 2,000' AGL
  • Light Rain
Becoming Aug-17 @ 20:00 to Aug-18 @ 02:00
BECMG 1720/1722 34003G08MPS
Wind Visibility Clouds Conditions
340° at 6 knots
 Gusting to 16 knots
10,000+ meters
  • Broken at 2,000' AGL
  • Light Rain
Becoming Aug-18 @ 02:00 to Aug-18 @ 12:00
BECMG 1802/1804 35004G13MPS
Wind Visibility Clouds Conditions
350° at 8 knots
 Gusting to 25 knots
10,000+ meters
  • Broken at 2,000' AGL
  • Light Rain
Becoming Aug-18 @ 12:00 to Aug-18 @ 15:00
BECMG 1812/1814 35003G08MPS
Wind Visibility Clouds Conditions
350° at 6 knots
 Gusting to 16 knots
10,000+ meters
  • Broken at 2,000' AGL
  • Light Rain
TAF USSS 171400Z 1715/1815 34005G14MPS 9999 -SHRA BKN020CB BECMG 1720/1722 34003G08MPS BECMG 1802/1804 35004G13MPS BECMG 1812/1814 35003G08MPS
Issued Aug-17 @ 14:00 UTC
(56 minutes ago)
Valid From Aug-17 @ 15:00 UTC
(in 4 minutes)
Valid To Aug-18 @ 15:00 UTC
(in 24 hours)
Aug-17 @ 15:00 - Aug-17 @ 20:00
Wind Visibility
340° at 10 knots
 Gusting to 27 knots
10,000+ meters
Clouds
  • Broken at 2,000' AGL
Conditions
  • Light Rain
Becoming Aug-17 @ 20:00 - Aug-18 @ 02:00
Wind Visibility
340° at 6 knots
 Gusting to 16 knots
10,000+ meters
Clouds
  • Broken at 2,000' AGL
Conditions
  • Light Rain
Becoming Aug-18 @ 02:00 - Aug-18 @ 12:00
Wind Visibility
350° at 8 knots
 Gusting to 25 knots
10,000+ meters
Clouds
  • Broken at 2,000' AGL
Conditions
  • Light Rain
Becoming Aug-18 @ 12:00 - Aug-18 @ 15:00
Wind Visibility
350° at 6 knots
 Gusting to 16 knots
10,000+ meters
Clouds
  • Broken at 2,000' AGL
Conditions
  • Light Rain